sensor_id;sensor_type;location;lat;lon;timestamp;P1;durP1;ratioP1;P2;durP2;ratioP2
42964;SDS011;28604;51.204;22.552;2024-03-08T00:00:15;115.22;;;49.97;;
42964;SDS011;28604;51.204;22.552;2024-03-08T00:03:03;121.45;;;54.35;;
42964;SDS011;28604;51.204;22.552;2024-03-08T00:05:29;107.70;;;47.40;;
42964;SDS011;28604;51.204;22.552;2024-03-08T00:07:55;116.85;;;52.60;;
42964;SDS011;28604;51.204;22.552;2024-03-08T00:10:21;125.20;;;52.97;;
42964;SDS011;28604;51.204;22.552;2024-03-08T00:12:47;118.63;;;54.10;;
42964;SDS011;28604;51.204;22.552;2024-03-08T00:15:14;113.20;;;50.38;;
42964;SDS011;28604;51.204;22.552;2024-03-08T00:17:42;116.53;;;50.20;;
42964;SDS011;28604;51.204;22.552;2024-03-08T00:20:08;111.90;;;50.42;;
42964;SDS011;28604;51.204;22.552;2024-03-08T00:22:35;111.15;;;50.35;;
42964;SDS011;28604;51.204;22.552;2024-03-08T00:25:02;98.10;;;46.53;;
42964;SDS011;28604;51.204;22.552;2024-03-08T00:27:29;117.70;;;49.45;;
42964;SDS011;28604;51.204;22.552;2024-03-08T00:29:56;109.40;;;48.65;;
42964;SDS011;28604;51.204;22.552;2024-03-08T00:32:26;101.97;;;47.47;;
42964;SDS011;28604;51.204;22.552;2024-03-08T00:34:55;106.85;;;48.15;;
42964;SDS011;28604;51.204;22.552;2024-03-08T00:37:21;112.95;;;50.25;;
42964;SDS011;28604;51.204;22.552;2024-03-08T00:39:48;112.95;;;47.20;;
42964;SDS011;28604;51.204;22.552;2024-03-08T00:42:17;111.40;;;49.05;;
42964;SDS011;28604;51.204;22.552;2024-03-08T00:44:44;103.03;;;46.03;;
42964;SDS011;28604;51.204;22.552;2024-03-08T00:47:10;109.70;;;48.60;;
42964;SDS011;28604;51.204;22.552;2024-03-08T00:49:36;104.30;;;47.60;;
42964;SDS011;28604;51.204;22.552;2024-03-08T00:52:04;100.80;;;48.40;;
42964;SDS011;28604;51.204;22.552;2024-03-08T00:54:33;96.05;;;43.33;;
42964;SDS011;28604;51.204;22.552;2024-03-08T00:57:01;90.07;;;42.58;;
42964;SDS011;28604;51.204;22.552;2024-03-08T00:59:28;99.95;;;45.15;;
42964;SDS011;28604;51.204;22.552;2024-03-08T01:01:55;94.68;;;42.03;;
42964;SDS011;28604;51.204;22.552;2024-03-08T01:04:21;91.70;;;41.70;;
42964;SDS011;28604;51.204;22.552;2024-03-08T01:06:48;99.35;;;46.53;;
42964;SDS011;28604;51.204;22.552;2024-03-08T01:09:14;92.10;;;44.15;;
42964;SDS011;28604;51.204;22.552;2024-03-08T01:11:43;95.90;;;43.80;;
42964;SDS011;28604;51.204;22.552;2024-03-08T01:14:09;103.10;;;44.20;;
42964;SDS011;28604;51.204;22.552;2024-03-08T01:58:35;89.85;;;37.45;;
42964;SDS011;28604;51.204;22.552;2024-03-08T02:01:02;80.53;;;36.58;;
42964;SDS011;28604;51.204;22.552;2024-03-08T02:03:29;81.18;;;36.35;;
42964;SDS011;28604;51.204;22.552;2024-03-08T02:05:57;87.18;;;37.42;;
42964;SDS011;28604;51.204;22.552;2024-03-08T02:08:24;77.53;;;37.22;;
42964;SDS011;28604;51.204;22.552;2024-03-08T02:10:50;82.45;;;38.47;;
42964;SDS011;28604;51.204;22.552;2024-03-08T02:13:16;89.40;;;38.97;;
42964;SDS011;28604;51.204;22.552;2024-03-08T02:15:58;79.03;;;37.63;;
42964;SDS011;28604;51.204;22.552;2024-03-08T02:18:26;85.20;;;35.85;;
42964;SDS011;28604;51.204;22.552;2024-03-08T02:20:54;80.53;;;37.35;;
42964;SDS011;28604;51.204;22.552;2024-03-08T02:23:21;92.60;;;35.45;;
42964;SDS011;28604;51.204;22.552;2024-03-08T02:25:47;85.93;;;37.17;;
42964;SDS011;28604;51.204;22.552;2024-03-08T02:28:14;95.35;;;37.53;;
42964;SDS011;28604;51.204;22.552;2024-03-08T02:30:40;83.05;;;37.78;;
42964;SDS011;28604;51.204;22.552;2024-03-08T02:33:07;89.57;;;38.20;;
42964;SDS011;28604;51.204;22.552;2024-03-08T02:35:34;86.53;;;39.22;;
42964;SDS011;28604;51.204;22.552;2024-03-08T02:38:01;85.97;;;39.33;;
42964;SDS011;28604;51.204;22.552;2024-03-08T02:40:29;90.55;;;38.95;;
42964;SDS011;28604;51.204;22.552;2024-03-08T02:42:55;84.68;;;37.25;;
42964;SDS011;28604;51.204;22.552;2024-03-08T02:45:21;77.85;;;37.03;;
42964;SDS011;28604;51.204;22.552;2024-03-08T02:47:47;82.68;;;39.40;;
42964;SDS011;28604;51.204;22.552;2024-03-08T02:50:15;86.90;;;37.92;;
42964;SDS011;28604;51.204;22.552;2024-03-08T02:52:42;79.78;;;37.05;;
42964;SDS011;28604;51.204;22.552;2024-03-08T02:55:08;88.88;;;37.88;;
42964;SDS011;28604;51.204;22.552;2024-03-08T02:57:36;83.53;;;37.10;;
42964;SDS011;28604;51.204;22.552;2024-03-08T03:00:02;80.60;;;35.15;;
42964;SDS011;28604;51.204;22.552;2024-03-08T03:02:29;80.70;;;36.78;;
42964;SDS011;28604;51.204;22.552;2024-03-08T03:04:55;79.57;;;35.05;;
42964;SDS011;28604;51.204;22.552;2024-03-08T03:07:21;88.50;;;37.13;;
42964;SDS011;28604;51.204;22.552;2024-03-08T03:09:47;85.57;;;37.13;;
42964;SDS011;28604;51.204;22.552;2024-03-08T03:12:13;91.30;;;37.80;;
42964;SDS011;28604;51.204;22.552;2024-03-08T03:14:39;87.35;;;39.25;;
42964;SDS011;28604;51.204;22.552;2024-03-08T03:17:05;86.55;;;40.40;;
42964;SDS011;28604;51.204;22.552;2024-03-08T03:19:31;87.05;;;41.88;;
42964;SDS011;28604;51.204;22.552;2024-03-08T03:21:57;91.80;;;40.90;;
42964;SDS011;28604;51.204;22.552;2024-03-08T03:24:23;85.82;;;38.65;;
42964;SDS011;28604;51.204;22.552;2024-03-08T03:26:49;94.40;;;41.53;;
42964;SDS011;28604;51.204;22.552;2024-03-08T03:29:15;84.65;;;38.22;;
42964;SDS011;28604;51.204;22.552;2024-03-08T03:31:42;88.68;;;39.38;;
42964;SDS011;28604;51.204;22.552;2024-03-08T03:34:12;87.72;;;41.38;;
42964;SDS011;28604;51.204;22.552;2024-03-08T03:36:38;88.68;;;40.22;;
42964;SDS011;28604;51.204;22.552;2024-03-08T03:39:10;89.80;;;40.90;;
42964;SDS011;28604;51.204;22.552;2024-03-08T03:41:38;94.82;;;40.80;;
42964;SDS011;28604;51.204;22.552;2024-03-08T03:44:04;93.25;;;40.47;;
42964;SDS011;28604;51.204;22.552;2024-03-08T03:46:32;86.60;;;37.60;;
42964;SDS011;28604;51.204;22.552;2024-03-08T03:48:58;90.70;;;40.83;;
42964;SDS011;28604;51.204;22.552;2024-03-08T03:51:24;88.05;;;38.13;;
42964;SDS011;28604;51.204;22.552;2024-03-08T03:53:51;89.60;;;39.42;;
42964;SDS011;28604;51.204;22.552;2024-03-08T03:56:18;91.75;;;38.70;;
42964;SDS011;28604;51.204;22.552;2024-03-08T06:38:50;118.50;;;54.60;;
42964;SDS011;28604;51.204;22.552;2024-03-08T06:41:16;125.15;;;60.38;;
42964;SDS011;28604;51.204;22.552;2024-03-08T06:43:43;119.38;;;55.03;;
42964;SDS011;28604;51.204;22.552;2024-03-08T06:46:09;117.28;;;56.88;;
42964;SDS011;28604;51.204;22.552;2024-03-08T06:48:38;110.68;;;53.08;;
42964;SDS011;28604;51.204;22.552;2024-03-08T06:51:04;103.55;;;53.00;;
42964;SDS011;28604;51.204;22.552;2024-03-08T06:53:30;99.90;;;50.60;;
42964;SDS011;28604;51.204;22.552;2024-03-08T06:55:57;97.35;;;49.88;;
42964;SDS011;28604;51.204;22.552;2024-03-08T06:58:24;97.30;;;49.55;;
42964;SDS011;28604;51.204;22.552;2024-03-08T07:00:50;105.05;;;51.85;;
42964;SDS011;28604;51.204;22.552;2024-03-08T07:03:17;99.30;;;51.13;;
42964;SDS011;28604;51.204;22.552;2024-03-08T07:05:44;98.63;;;49.17;;
42964;SDS011;28604;51.204;22.552;2024-03-08T07:08:10;88.40;;;48.42;;
42964;SDS011;28604;51.204;22.552;2024-03-08T07:10:39;97.00;;;50.45;;
42964;SDS011;28604;51.204;22.552;2024-03-08T07:13:10;90.43;;;47.63;;
42964;SDS011;28604;51.204;22.552;2024-03-08T07:15:36;84.78;;;46.45;;
42964;SDS011;28604;51.204;22.552;2024-03-08T07:18:02;85.85;;;45.63;;
42964;SDS011;28604;51.204;22.552;2024-03-08T07:20:29;85.00;;;44.35;;
42964;SDS011;28604;51.204;22.552;2024-03-08T07:22:55;81.53;;;45.28;;
42964;SDS011;28604;51.204;22.552;2024-03-08T07:25:21;84.38;;;44.53;;
42964;SDS011;28604;51.204;22.552;2024-03-08T07:27:48;74.75;;;42.50;;
42964;SDS011;28604;51.204;22.552;2024-03-08T07:30:14;77.63;;;43.38;;
42964;SDS011;28604;51.204;22.552;2024-03-08T07:32:59;75.75;;;41.25;;
42964;SDS011;28604;51.204;22.552;2024-03-08T07:35:25;75.45;;;42.83;;
42964;SDS011;28604;51.204;22.552;2024-03-08T07:37:54;78.72;;;42.47;;
42964;SDS011;28604;51.204;22.552;2024-03-08T07:40:23;70.90;;;41.67;;
42964;SDS011;28604;51.204;22.552;2024-03-08T07:42:49;76.13;;;41.72;;
42964;SDS011;28604;51.204;22.552;2024-03-08T07:45:15;68.15;;;39.63;;
42964;SDS011;28604;51.204;22.552;2024-03-08T07:47:42;62.45;;;37.22;;
42964;SDS011;28604;51.204;22.552;2024-03-08T07:50:08;66.32;;;39.88;;
42964;SDS011;28604;51.204;22.552;2024-03-08T07:52:35;74.07;;;41.65;;
42964;SDS011;28604;51.204;22.552;2024-03-08T07:55:05;69.22;;;41.55;;
42964;SDS011;28604;51.204;22.552;2024-03-08T07:57:31;63.90;;;39.83;;
42964;SDS011;28604;51.204;22.552;2024-03-08T07:59:57;60.83;;;37.90;;
42964;SDS011;28604;51.204;22.552;2024-03-08T08:02:23;56.97;;;35.03;;
42964;SDS011;28604;51.204;22.552;2024-03-08T08:04:49;56.60;;;32.00;;
42964;SDS011;28604;51.204;22.552;2024-03-08T08:07:15;51.92;;;35.00;;
42964;SDS011;28604;51.204;22.552;2024-03-08T08:09:41;59.17;;;36.65;;
42964;SDS011;28604;51.204;22.552;2024-03-08T08:12:08;57.45;;;36.65;;
42964;SDS011;28604;51.204;22.552;2024-03-08T08:14:37;65.50;;;38.13;;
42964;SDS011;28604;51.204;22.552;2024-03-08T08:17:04;59.35;;;36.65;;
42964;SDS011;28604;51.204;22.552;2024-03-08T08:19:34;57.83;;;35.35;;
42964;SDS011;28604;51.204;22.552;2024-03-08T08:22:01;58.58;;;36.67;;
42964;SDS011;28604;51.204;22.552;2024-03-08T08:24:30;53.67;;;34.17;;
42964;SDS011;28604;51.204;22.552;2024-03-08T08:26:56;51.20;;;34.08;;
42964;SDS011;28604;51.204;22.552;2024-03-08T08:29:22;46.65;;;30.90;;
42964;SDS011;28604;51.204;22.552;2024-03-08T08:31:51;48.08;;;30.65;;
42964;SDS011;28604;51.204;22.552;2024-03-08T08:34:27;44.28;;;28.85;;
42964;SDS011;28604;51.204;22.552;2024-03-08T08:36:53;37.78;;;25.67;;
42964;SDS011;28604;51.204;22.552;2024-03-08T09:40:53;21.85;;;15.48;;
42964;SDS011;28604;51.204;22.552;2024-03-08T09:43:22;18.33;;;14.52;;
42964;SDS011;28604;51.204;22.552;2024-03-08T09:45:49;22.90;;;15.70;;
42964;SDS011;28604;51.204;22.552;2024-03-08T09:48:16;19.80;;;14.60;;
42964;SDS011;28604;51.204;22.552;2024-03-08T09:50:44;25.83;;;17.98;;
42964;SDS011;28604;51.204;22.552;2024-03-08T09:53:11;26.65;;;18.08;;
42964;SDS011;28604;51.204;22.552;2024-03-08T09:55:38;31.98;;;20.80;;
42964;SDS011;28604;51.204;22.552;2024-03-08T09:58:13;31.20;;;18.45;;
42964;SDS011;28604;51.204;22.552;2024-03-08T10:00:59;27.88;;;18.08;;
42964;SDS011;28604;51.204;22.552;2024-03-08T10:03:30;31.17;;;18.63;;
42964;SDS011;28604;51.204;22.552;2024-03-08T10:05:57;117.32;;;67.35;;
42964;SDS011;28604;51.204;22.552;2024-03-08T10:08:27;53.65;;;31.88;;
42964;SDS011;28604;51.204;22.552;2024-03-08T10:10:57;26.45;;;19.75;;
42964;SDS011;28604;51.204;22.552;2024-03-08T10:13:26;21.52;;;16.30;;
42964;SDS011;28604;51.204;22.552;2024-03-08T10:15:57;29.17;;;16.85;;
42964;SDS011;28604;51.204;22.552;2024-03-08T10:18:23;18.67;;;13.82;;
42964;SDS011;28604;51.204;22.552;2024-03-08T10:21:05;18.52;;;11.02;;
42964;SDS011;28604;51.204;22.552;2024-03-08T10:23:34;16.70;;;11.32;;
42964;SDS011;28604;51.204;22.552;2024-03-08T10:26:21;16.77;;;11.68;;
42964;SDS011;28604;51.204;22.552;2024-03-08T10:28:47;17.73;;;11.38;;
42964;SDS011;28604;51.204;22.552;2024-03-08T10:31:15;17.52;;;12.18;;
42964;SDS011;28604;51.204;22.552;2024-03-08T10:33:41;15.50;;;11.93;;
42964;SDS011;28604;51.204;22.552;2024-03-08T10:36:08;18.30;;;12.73;;
42964;SDS011;28604;51.204;22.552;2024-03-08T10:38:38;15.70;;;12.30;;
42964;SDS011;28604;51.204;22.552;2024-03-08T10:41:06;17.42;;;10.65;;
42964;SDS011;28604;51.204;22.552;2024-03-08T10:43:37;13.27;;;10.05;;
42964;SDS011;28604;51.204;22.552;2024-03-08T10:49:11;15.07;;;10.95;;
42964;SDS011;28604;51.204;22.552;2024-03-08T10:51:43;16.13;;;9.73;;
42964;SDS011;28604;51.204;22.552;2024-03-08T10:54:11;16.98;;;10.73;;
42964;SDS011;28604;51.204;22.552;2024-03-08T10:56:38;15.55;;;10.77;;
42964;SDS011;28604;51.204;22.552;2024-03-08T10:59:05;18.48;;;12.95;;
42964;SDS011;28604;51.204;22.552;2024-03-08T11:01:36;15.50;;;10.82;;
42964;SDS011;28604;51.204;22.552;2024-03-08T11:04:04;18.20;;;11.18;;
42964;SDS011;28604;51.204;22.552;2024-03-08T11:09:02;14.17;;;11.40;;
42964;SDS011;28604;51.204;22.552;2024-03-08T11:11:30;22.27;;;12.63;;
42964;SDS011;28604;51.204;22.552;2024-03-08T11:13:57;16.17;;;12.02;;
42964;SDS011;28604;51.204;22.552;2024-03-08T11:18:50;18.95;;;12.43;;
42964;SDS011;28604;51.204;22.552;2024-03-08T11:21:19;17.35;;;12.05;;
42964;SDS011;28604;51.204;22.552;2024-03-08T11:23:58;16.38;;;11.15;;
42964;SDS011;28604;51.204;22.552;2024-03-08T11:26:25;19.70;;;13.88;;
42964;SDS011;28604;51.204;22.552;2024-03-08T11:28:51;22.67;;;13.52;;
42964;SDS011;28604;51.204;22.552;2024-03-08T11:31:22;19.27;;;13.60;;
42964;SDS011;28604;51.204;22.552;2024-03-08T11:33:50;19.88;;;14.18;;
42964;SDS011;28604;51.204;22.552;2024-03-08T11:36:21;18.80;;;13.82;;
42964;SDS011;28604;51.204;22.552;2024-03-08T12:39:34;24.48;;;16.17;;
42964;SDS011;28604;51.204;22.552;2024-03-08T12:42:00;22.73;;;15.60;;
42964;SDS011;28604;51.204;22.552;2024-03-08T12:44:26;23.70;;;15.00;;
42964;SDS011;28604;51.204;22.552;2024-03-08T12:46:54;25.40;;;15.63;;
42964;SDS011;28604;51.204;22.552;2024-03-08T12:49:20;21.63;;;15.38;;
42964;SDS011;28604;51.204;22.552;2024-03-08T12:51:49;23.02;;;15.23;;
42964;SDS011;28604;51.204;22.552;2024-03-08T12:54:14;24.25;;;16.55;;
42964;SDS011;28604;51.204;22.552;2024-03-08T12:56:40;26.85;;;16.77;;
42964;SDS011;28604;51.204;22.552;2024-03-08T12:59:07;22.95;;;14.43;;
42964;SDS011;28604;51.204;22.552;2024-03-08T13:01:34;25.88;;;15.13;;
42964;SDS011;28604;51.204;22.552;2024-03-08T13:04:03;25.55;;;15.98;;
42964;SDS011;28604;51.204;22.552;2024-03-08T13:06:34;21.08;;;13.80;;
42964;SDS011;28604;51.204;22.552;2024-03-08T13:09:06;24.33;;;15.70;;
42964;SDS011;28604;51.204;22.552;2024-03-08T13:11:32;22.63;;;15.00;;
42964;SDS011;28604;51.204;22.552;2024-03-08T13:14:02;24.55;;;14.88;;
42964;SDS011;28604;51.204;22.552;2024-03-08T13:16:29;29.85;;;15.63;;
42964;SDS011;28604;51.204;22.552;2024-03-08T13:18:55;25.75;;;15.32;;
42964;SDS011;28604;51.204;22.552;2024-03-08T13:21:22;26.10;;;15.98;;
42964;SDS011;28604;51.204;22.552;2024-03-08T13:23:49;29.60;;;16.25;;
42964;SDS011;28604;51.204;22.552;2024-03-08T13:26:17;28.48;;;16.67;;
42964;SDS011;28604;51.204;22.552;2024-03-08T13:28:43;21.98;;;14.73;;
42964;SDS011;28604;51.204;22.552;2024-03-08T13:31:22;27.70;;;14.73;;
42964;SDS011;28604;51.204;22.552;2024-03-08T13:33:48;24.52;;;15.25;;
42964;SDS011;28604;51.204;22.552;2024-03-08T13:36:15;22.10;;;15.10;;
42964;SDS011;28604;51.204;22.552;2024-03-08T13:38:42;26.27;;;15.45;;
42964;SDS011;28604;51.204;22.552;2024-03-08T13:41:09;24.83;;;15.75;;
42964;SDS011;28604;51.204;22.552;2024-03-08T13:43:42;21.83;;;15.27;;
42964;SDS011;28604;51.204;22.552;2024-03-08T13:46:12;26.02;;;15.52;;
42964;SDS011;28604;51.204;22.552;2024-03-08T13:48:39;24.17;;;14.95;;
42964;SDS011;28604;51.204;22.552;2024-03-08T13:51:06;22.73;;;16.73;;
42964;SDS011;28604;51.204;22.552;2024-03-08T13:53:33;24.65;;;16.25;;
42964;SDS011;28604;51.204;22.552;2024-03-08T13:56:02;27.20;;;16.90;;
42964;SDS011;28604;51.204;22.552;2024-03-08T13:58:28;23.85;;;15.38;;
42964;SDS011;28604;51.204;22.552;2024-03-08T14:00:55;26.10;;;15.88;;
42964;SDS011;28604;51.204;22.552;2024-03-08T14:03:21;24.85;;;16.50;;
42964;SDS011;28604;51.204;22.552;2024-03-08T14:05:47;28.35;;;17.40;;
42964;SDS011;28604;51.204;22.552;2024-03-08T14:08:13;27.13;;;16.50;;
42964;SDS011;28604;51.204;22.552;2024-03-08T14:10:39;28.23;;;16.67;;
42964;SDS011;28604;51.204;22.552;2024-03-08T14:13:07;29.98;;;17.45;;
42964;SDS011;28604;51.204;22.552;2024-03-08T14:15:34;27.15;;;17.10;;
42964;SDS011;28604;51.204;22.552;2024-03-08T14:18:00;23.45;;;16.33;;
42964;SDS011;28604;51.204;22.552;2024-03-08T14:20:27;26.38;;;17.40;;
42964;SDS011;28604;51.204;22.552;2024-03-08T14:22:56;29.75;;;17.75;;
42964;SDS011;28604;51.204;22.552;2024-03-08T14:25:22;23.77;;;16.77;;
42964;SDS011;28604;51.204;22.552;2024-03-08T14:27:49;30.58;;;16.38;;
42964;SDS011;28604;51.204;22.552;2024-03-08T14:30:20;31.65;;;17.30;;
42964;SDS011;28604;51.204;22.552;2024-03-08T14:33:03;34.80;;;19.58;;
42964;SDS011;28604;51.204;22.552;2024-03-08T14:35:36;30.30;;;17.45;;
42964;SDS011;28604;51.204;22.552;2024-03-08T14:38:03;29.17;;;17.10;;
42964;SDS011;28604;51.204;22.552;2024-03-08T17:20:44;23.02;;;10.70;;
42964;SDS011;28604;51.204;22.552;2024-03-08T17:23:10;29.00;;;14.38;;
42964;SDS011;28604;51.204;22.552;2024-03-08T17:25:41;28.40;;;14.25;;
42964;SDS011;28604;51.204;22.552;2024-03-08T17:28:08;37.33;;;15.77;;
42964;SDS011;28604;51.204;22.552;2024-03-08T17:30:36;37.17;;;16.48;;
42964;SDS011;28604;51.204;22.552;2024-03-08T17:33:05;26.77;;;14.00;;
42964;SDS011;28604;51.204;22.552;2024-03-08T17:35:35;36.00;;;16.60;;
42964;SDS011;28604;51.204;22.552;2024-03-08T17:38:04;40.85;;;21.63;;
42964;SDS011;28604;51.204;22.552;2024-03-08T17:40:39;37.47;;;20.77;;
42964;SDS011;28604;51.204;22.552;2024-03-08T17:43:07;43.13;;;22.38;;
42964;SDS011;28604;51.204;22.552;2024-03-08T17:45:36;55.47;;;26.17;;
42964;SDS011;28604;51.204;22.552;2024-03-08T17:48:07;46.20;;;24.10;;
42964;SDS011;28604;51.204;22.552;2024-03-08T17:50:42;48.47;;;26.77;;
42964;SDS011;28604;51.204;22.552;2024-03-08T17:53:09;53.53;;;27.10;;
42964;SDS011;28604;51.204;22.552;2024-03-08T17:55:36;50.22;;;27.27;;
42964;SDS011;28604;51.204;22.552;2024-03-08T17:58:07;49.15;;;23.20;;
42964;SDS011;28604;51.204;22.552;2024-03-08T18:00:35;57.33;;;20.50;;
42964;SDS011;28604;51.204;22.552;2024-03-08T18:03:01;45.15;;;20.30;;
42964;SDS011;28604;51.204;22.552;2024-03-08T18:05:31;44.10;;;18.95;;
42964;SDS011;28604;51.204;22.552;2024-03-08T18:08:02;57.33;;;24.65;;
42964;SDS011;28604;51.204;22.552;2024-03-08T18:10:30;62.13;;;26.05;;
42964;SDS011;28604;51.204;22.552;2024-03-08T18:12:59;62.15;;;29.95;;
42964;SDS011;28604;51.204;22.552;2024-03-08T18:15:35;87.60;;;40.78;;
42964;SDS011;28604;51.204;22.552;2024-03-08T18:18:01;76.25;;;35.83;;
42964;SDS011;28604;51.204;22.552;2024-03-08T18:20:33;72.78;;;35.83;;
42964;SDS011;28604;51.204;22.552;2024-03-08T18:23:07;75.82;;;38.38;;
42964;SDS011;28604;51.204;22.552;2024-03-08T18:25:34;77.03;;;38.03;;
42964;SDS011;28604;51.204;22.552;2024-03-08T18:28:01;78.75;;;35.85;;
42964;SDS011;28604;51.204;22.552;2024-03-08T18:30:31;67.22;;;30.45;;
42964;SDS011;28604;51.204;22.552;2024-03-08T18:32:58;57.67;;;27.02;;
42964;SDS011;28604;51.204;22.552;2024-03-08T18:35:24;55.92;;;24.98;;
42964;SDS011;28604;51.204;22.552;2024-03-08T18:37:51;50.45;;;23.92;;
42964;SDS011;28604;51.204;22.552;2024-03-08T18:40:17;44.75;;;23.13;;
42964;SDS011;28604;51.204;22.552;2024-03-08T18:42:48;44.40;;;21.38;;
42964;SDS011;28604;51.204;22.552;2024-03-08T18:45:15;49.33;;;20.77;;
42964;SDS011;28604;51.204;22.552;2024-03-08T18:47:42;38.97;;;17.42;;
42964;SDS011;28604;51.204;22.552;2024-03-08T18:50:11;37.30;;;16.75;;
42964;SDS011;28604;51.204;22.552;2024-03-08T18:52:42;44.88;;;17.67;;
42964;SDS011;28604;51.204;22.552;2024-03-08T18:55:09;29.80;;;15.10;;
42964;SDS011;28604;51.204;22.552;2024-03-08T18:57:40;28.60;;;14.55;;
42964;SDS011;28604;51.204;22.552;2024-03-08T19:00:11;31.30;;;14.02;;
42964;SDS011;28604;51.204;22.552;2024-03-08T19:05:14;28.98;;;12.80;;
42964;SDS011;28604;51.204;22.552;2024-03-08T19:07:45;26.75;;;14.15;;
42964;SDS011;28604;51.204;22.552;2024-03-08T19:10:13;43.17;;;14.85;;
42964;SDS011;28604;51.204;22.552;2024-03-08T19:12:44;35.05;;;14.35;;
42964;SDS011;28604;51.204;22.552;2024-03-08T19:15:13;37.88;;;14.30;;
42964;SDS011;28604;51.204;22.552;2024-03-08T19:17:44;32.70;;;14.70;;
